sensor_id;sensor_type;location;lat;lon;timestamp;pressure;altitude;pressure_sealevel;temperature;humidity
39177;BME280;24904;52.208;21.192;2023-05-10T00:02:06;101205.43;;;8.04;48.72
39177;BME280;24904;52.208;21.192;2023-05-10T00:07:09;101205.07;;;8.03;48.71
39177;BME280;24904;52.208;21.192;2023-05-10T00:12:12;101197.83;;;8.03;48.65
39177;BME280;24904;52.208;21.192;2023-05-10T00:17:16;101193.05;;;8.03;48.67
39177;BME280;24904;52.208;21.192;2023-05-10T00:22:19;101193.27;;;8.02;48.68
39177;BME280;24904;52.208;21.192;2023-05-10T00:27:22;101187.80;;;7.99;48.88
39177;BME280;24904;52.208;21.192;2023-05-10T00:32:25;101181.98;;;7.97;48.66
39177;BME280;24904;52.208;21.192;2023-05-10T00:37:28;101182.63;;;7.99;48.64
39177;BME280;24904;52.208;21.192;2023-05-10T00:42:31;101174.98;;;7.94;48.35
39177;BME280;24904;52.208;21.192;2023-05-10T00:47:34;101172.71;;;7.91;48.32
39177;BME280;24904;52.208;21.192;2023-05-10T00:52:38;101172.47;;;7.91;48.38
39177;BME280;24904;52.208;21.192;2023-05-10T00:57:41;101168.27;;;7.94;48.16
39177;BME280;24904;52.208;21.192;2023-05-10T01:02:45;101166.33;;;7.96;47.96
39177;BME280;24904;52.208;21.192;2023-05-10T01:07:48;101165.67;;;7.98;47.74
39177;BME280;24904;52.208;21.192;2023-05-10T01:12:51;101162.87;;;8.03;47.71
39177;BME280;24904;52.208;21.192;2023-05-10T01:17:54;101161.27;;;8.03;47.52
39177;BME280;24904;52.208;21.192;2023-05-10T01:23:14;101155.00;;;8.06;47.50
39177;BME280;24904;52.208;21.192;2023-05-10T01:28:43;101153.84;;;8.06;47.29
39177;BME280;24904;52.208;21.192;2023-05-10T01:33:57;101153.98;;;8.03;47.16
39177;BME280;24904;52.208;21.192;2023-05-10T01:39:09;101154.56;;;8.04;47.03
39177;BME280;24904;52.208;21.192;2023-05-10T01:44:20;101149.27;;;8.08;46.91
39177;BME280;24904;52.208;21.192;2023-05-10T01:49:31;101147.67;;;8.11;46.45
39177;BME280;24904;52.208;21.192;2023-05-10T01:54:36;101143.36;;;8.11;46.65
39177;BME280;24904;52.208;21.192;2023-05-10T01:59:43;101135.52;;;8.11;46.22
39177;BME280;24904;52.208;21.192;2023-05-10T02:04:47;101134.61;;;8.11;46.50
39177;BME280;24904;52.208;21.192;2023-05-10T02:09:50;101133.41;;;8.13;46.45
39177;BME280;24904;52.208;21.192;2023-05-10T02:14:54;101133.56;;;8.13;46.42
39177;BME280;24904;52.208;21.192;2023-05-10T02:19:59;101127.71;;;8.08;46.39
39177;BME280;24904;52.208;21.192;2023-05-10T02:25:04;101128.92;;;8.04;46.62
39177;BME280;24904;52.208;21.192;2023-05-10T02:30:10;101128.84;;;7.97;46.63
39177;BME280;24904;52.208;21.192;2023-05-10T02:35:13;101133.95;;;7.91;46.70
39177;BME280;24904;52.208;21.192;2023-05-10T02:40:18;101134.32;;;7.84;47.15
39177;BME280;24904;52.208;21.192;2023-05-10T02:45:25;101134.56;;;7.80;47.06
39177;BME280;24904;52.208;21.192;2023-05-10T02:50:32;101136.31;;;7.76;47.32
39177;BME280;24904;52.208;21.192;2023-05-10T02:55:39;101138.56;;;7.71;47.27
39177;BME280;24904;52.208;21.192;2023-05-10T03:00:43;101137.79;;;7.67;47.56
39177;BME280;24904;52.208;21.192;2023-05-10T03:05:47;101139.33;;;7.61;47.77
39177;BME280;24904;52.208;21.192;2023-05-10T03:10:58;101137.63;;;7.56;47.90
39177;BME280;24904;52.208;21.192;2023-05-10T03:16:09;101140.23;;;7.54;47.97
39177;BME280;24904;52.208;21.192;2023-05-10T03:21:14;101142.95;;;7.49;47.93
39177;BME280;24904;52.208;21.192;2023-05-10T03:26:25;101138.98;;;7.43;48.56
39177;BME280;24904;52.208;21.192;2023-05-10T03:31:34;101143.52;;;7.39;48.44
39177;BME280;24904;52.208;21.192;2023-05-10T03:36:38;101135.06;;;7.36;48.77
39177;BME280;24904;52.208;21.192;2023-05-10T03:41:41;101133.74;;;7.39;48.76
39177;BME280;24904;52.208;21.192;2023-05-10T03:46:44;101134.27;;;7.40;48.79
39177;BME280;24904;52.208;21.192;2023-05-10T03:51:48;101131.91;;;7.44;48.97
39177;BME280;24904;52.208;21.192;2023-05-10T03:56:51;101130.45;;;7.49;49.02
39177;BME280;24904;52.208;21.192;2023-05-10T04:01:55;101129.99;;;7.54;48.95
39177;BME280;24904;52.208;21.192;2023-05-10T04:06:58;101133.70;;;7.63;49.33
39177;BME280;24904;52.208;21.192;2023-05-10T04:12:01;101130.33;;;7.72;49.07
39177;BME280;24904;52.208;21.192;2023-05-10T04:17:04;101132.24;;;7.80;49.24
39177;BME280;24904;52.208;21.192;2023-05-10T04:22:08;101136.44;;;7.91;49.00
39177;BME280;24904;52.208;21.192;2023-05-10T04:27:11;101136.58;;;8.01;49.24
39177;BME280;24904;52.208;21.192;2023-05-10T04:32:14;101132.85;;;8.10;49.00
39177;BME280;24904;52.208;21.192;2023-05-10T04:37:18;101135.98;;;8.21;49.06
39177;BME280;24904;52.208;21.192;2023-05-10T04:42:21;101141.88;;;8.34;49.18
39177;BME280;24904;52.208;21.192;2023-05-10T04:47:24;101146.80;;;8.48;49.06
39177;BME280;24904;52.208;21.192;2023-05-10T04:52:27;101148.82;;;8.63;48.79
39177;BME280;24904;52.208;21.192;2023-05-10T04:57:30;101147.60;;;8.74;48.72
39177;BME280;24904;52.208;21.192;2023-05-10T05:02:33;101149.23;;;8.88;48.73
39177;BME280;24904;52.208;21.192;2023-05-10T05:07:36;101149.15;;;9.04;48.54
39177;BME280;24904;52.208;21.192;2023-05-10T05:12:40;101148.23;;;9.21;48.22
39177;BME280;24904;52.208;21.192;2023-05-10T05:17:43;101143.39;;;9.35;48.16
39177;BME280;24904;52.208;21.192;2023-05-10T05:22:46;101139.64;;;9.52;48.31
39177;BME280;24904;52.208;21.192;2023-05-10T05:27:49;101141.38;;;9.72;48.16
39177;BME280;24904;52.208;21.192;2023-05-10T05:32:52;101143.06;;;9.92;47.95
39177;BME280;24904;52.208;21.192;2023-05-10T05:37:55;101148.02;;;10.11;47.61
39177;BME280;24904;52.208;21.192;2023-05-10T05:42:59;101146.76;;;10.29;47.24
39177;BME280;24904;52.208;21.192;2023-05-10T05:48:02;101145.55;;;10.47;46.84
39177;BME280;24904;52.208;21.192;2023-05-10T05:53:05;101148.45;;;10.67;46.50
39177;BME280;24904;52.208;21.192;2023-05-10T05:58:08;101148.59;;;10.90;46.31
39177;BME280;24904;52.208;21.192;2023-05-10T06:03:11;101150.96;;;11.12;45.77
39177;BME280;24904;52.208;21.192;2023-05-10T06:08:14;101149.48;;;11.33;45.33
39177;BME280;24904;52.208;21.192;2023-05-10T06:13:17;101151.27;;;11.55;45.22
39177;BME280;24904;52.208;21.192;2023-05-10T06:18:20;101150.92;;;11.81;44.73
39177;BME280;24904;52.208;21.192;2023-05-10T06:23:23;101149.49;;;12.06;44.56
39177;BME280;24904;52.208;21.192;2023-05-10T06:28:27;101149.30;;;12.31;43.97
39177;BME280;24904;52.208;21.192;2023-05-10T06:33:30;101146.92;;;12.55;43.34
39177;BME280;24904;52.208;21.192;2023-05-10T06:38:33;101147.55;;;12.77;43.21
39177;BME280;24904;52.208;21.192;2023-05-10T06:43:36;101144.20;;;12.95;42.64
39177;BME280;24904;52.208;21.192;2023-05-10T06:48:42;101146.31;;;13.17;42.45
39177;BME280;24904;52.208;21.192;2023-05-10T06:53:45;101142.77;;;13.41;41.81
39177;BME280;24904;52.208;21.192;2023-05-10T06:58:48;101142.06;;;13.62;41.60
39177;BME280;24904;52.208;21.192;2023-05-10T07:03:51;101134.78;;;13.82;41.05
39177;BME280;24904;52.208;21.192;2023-05-10T07:08:55;101137.30;;;14.06;40.30
39177;BME280;24904;52.208;21.192;2023-05-10T07:13:59;101132.60;;;14.29;39.36
39177;BME280;24904;52.208;21.192;2023-05-10T07:19:03;101127.88;;;14.48;38.69
39177;BME280;24904;52.208;21.192;2023-05-10T07:24:08;101123.13;;;14.69;38.06
39177;BME280;24904;52.208;21.192;2023-05-10T07:29:13;101127.84;;;14.88;37.65
39177;BME280;24904;52.208;21.192;2023-05-10T07:34:17;101132.37;;;15.11;37.28
39177;BME280;24904;52.208;21.192;2023-05-10T07:39:20;101129.85;;;15.30;36.10
39177;BME280;24904;52.208;21.192;2023-05-10T07:44:24;101127.13;;;15.44;35.13
39177;BME280;24904;52.208;21.192;2023-05-10T07:49:29;101124.76;;;15.64;35.48
39177;BME280;24904;52.208;21.192;2023-05-10T07:54:33;101132.64;;;15.82;34.46
39177;BME280;24904;52.208;21.192;2023-05-10T07:59:39;101127.41;;;15.87;33.79
39177;BME280;24904;52.208;21.192;2023-05-10T08:15:10;101117.79;;;16.22;32.77
39177;BME280;24904;52.208;21.192;2023-05-10T08:20:13;101115.50;;;16.34;31.74
39177;BME280;24904;52.208;21.192;2023-05-10T08:25:18;101116.20;;;16.39;31.70
39177;BME280;24904;52.208;21.192;2023-05-10T08:30:22;101110.64;;;16.43;31.91
39177;BME280;24904;52.208;21.192;2023-05-10T08:35:25;101103.98;;;16.53;32.10
39177;BME280;24904;52.208;21.192;2023-05-10T08:40:28;101111.10;;;16.59;31.49
39177;BME280;24904;52.208;21.192;2023-05-10T08:45:33;101113.23;;;16.60;31.54
39177;BME280;24904;52.208;21.192;2023-05-10T08:50:38;101116.57;;;16.71;31.99
39177;BME280;24904;52.208;21.192;2023-05-10T08:55:41;101118.80;;;16.77;31.56
39177;BME280;24904;52.208;21.192;2023-05-10T09:00:45;101114.17;;;16.81;31.70
39177;BME280;24904;52.208;21.192;2023-05-10T09:05:48;101104.19;;;16.83;31.12
39177;BME280;24904;52.208;21.192;2023-05-10T09:10:52;101109.01;;;16.85;31.10
39177;BME280;24904;52.208;21.192;2023-05-10T09:15:55;101102.92;;;16.81;30.89
39177;BME280;24904;52.208;21.192;2023-05-10T09:20:58;101093.90;;;16.80;30.86
39177;BME280;24904;52.208;21.192;2023-05-10T09:26:05;101088.89;;;16.83;30.88
39177;BME280;24904;52.208;21.192;2023-05-10T09:31:08;101085.48;;;16.82;30.83
39177;BME280;24904;52.208;21.192;2023-05-10T09:36:12;101085.63;;;16.89;30.70
39177;BME280;24904;52.208;21.192;2023-05-10T09:41:19;101091.16;;;16.96;30.46
39177;BME280;24904;52.208;21.192;2023-05-10T09:46:22;101092.94;;;17.02;30.22
39177;BME280;24904;52.208;21.192;2023-05-10T09:51:26;101097.79;;;17.04;29.95
39177;BME280;24904;52.208;21.192;2023-05-10T09:56:39;101095.39;;;17.07;29.80
39177;BME280;24904;52.208;21.192;2023-05-10T10:01:50;101078.83;;;17.08;30.08
39177;BME280;24904;52.208;21.192;2023-05-10T10:07:04;101083.00;;;17.11;30.09
39177;BME280;24904;52.208;21.192;2023-05-10T10:12:07;101076.34;;;17.11;30.24
39177;BME280;24904;52.208;21.192;2023-05-10T10:17:11;101064.39;;;17.09;30.63
39177;BME280;24904;52.208;21.192;2023-05-10T10:22:14;101068.30;;;17.19;30.51
39177;BME280;24904;52.208;21.192;2023-05-10T10:27:21;101061.47;;;17.22;29.77
39177;BME280;24904;52.208;21.192;2023-05-10T10:32:30;101055.77;;;17.18;29.60
39177;BME280;24904;52.208;21.192;2023-05-10T10:37:47;101043.95;;;17.22;29.89
39177;BME280;24904;52.208;21.192;2023-05-10T10:42:50;101043.94;;;17.36;29.90
39177;BME280;24904;52.208;21.192;2023-05-10T10:48:22;101041.76;;;17.42;29.53
39177;BME280;24904;52.208;21.192;2023-05-10T10:53:27;101027.94;;;17.35;29.31
39177;BME280;24904;52.208;21.192;2023-05-10T10:58:31;101036.46;;;17.39;29.43
39177;BME280;24904;52.208;21.192;2023-05-10T11:03:34;101029.92;;;17.44;29.23
39177;BME280;24904;52.208;21.192;2023-05-10T11:08:43;101035.17;;;17.41;29.08
39177;BME280;24904;52.208;21.192;2023-05-10T11:13:47;101029.98;;;17.36;29.32
39177;BME280;24904;52.208;21.192;2023-05-10T11:18:57;101016.15;;;17.40;29.88
39177;BME280;24904;52.208;21.192;2023-05-10T11:24:01;101012.39;;;17.44;29.40
39177;BME280;24904;52.208;21.192;2023-05-10T11:29:08;101017.45;;;17.48;29.76
39177;BME280;24904;52.208;21.192;2023-05-10T11:34:11;101007.66;;;17.52;29.71
39177;BME280;24904;52.208;21.192;2023-05-10T11:39:14;101012.23;;;17.57;29.55
39177;BME280;24904;52.208;21.192;2023-05-10T11:44:18;101001.38;;;17.54;29.20
39177;BME280;24904;52.208;21.192;2023-05-10T11:49:21;101008.21;;;17.54;29.32
39177;BME280;24904;52.208;21.192;2023-05-10T11:54:27;100997.84;;;17.51;29.25
39177;BME280;24904;52.208;21.192;2023-05-10T11:59:30;101006.32;;;17.52;29.38
39177;BME280;24904;52.208;21.192;2023-05-10T12:04:33;100998.48;;;17.51;29.35
39177;BME280;24904;52.208;21.192;2023-05-10T12:09:36;100999.84;;;17.49;29.53
39177;BME280;24904;52.208;21.192;2023-05-10T12:14:39;100989.59;;;17.50;29.63
39177;BME280;24904;52.208;21.192;2023-05-10T12:19:42;100982.52;;;17.52;29.83
39177;BME280;24904;52.208;21.192;2023-05-10T12:24:47;100990.80;;;17.56;29.51
39177;BME280;24904;52.208;21.192;2023-05-10T12:29:50;100981.75;;;17.57;29.33
39177;BME280;24904;52.208;21.192;2023-05-10T12:34:53;100991.59;;;17.59;29.15
39177;BME280;24904;52.208;21.192;2023-05-10T12:39:56;100985.79;;;17.50;29.43
39177;BME280;24904;52.208;21.192;2023-05-10T12:44:59;100981.44;;;17.48;29.62
39177;BME280;24904;52.208;21.192;2023-05-10T12:50:03;100987.38;;;17.51;29.97
39177;BME280;24904;52.208;21.192;2023-05-10T12:55:07;100977.61;;;17.51;30.39
39177;BME280;24904;52.208;21.192;2023-05-10T13:00:13;100972.59;;;17.54;30.22
39177;BME280;24904;52.208;21.192;2023-05-10T13:05:16;100965.34;;;17.47;30.04
39177;BME280;24904;52.208;21.192;2023-05-10T13:10:19;100970.52;;;17.42;30.36
39177;BME280;24904;52.208;21.192;2023-05-10T13:15:23;100972.29;;;17.41;30.02
39177;BME280;24904;52.208;21.192;2023-05-10T13:20:26;100962.89;;;17.36;30.33
39177;BME280;24904;52.208;21.192;2023-05-10T13:25:29;100952.83;;;17.35;30.43
39177;BME280;24904;52.208;21.192;2023-05-10T13:30:32;100961.52;;;17.38;30.13
39177;BME280;24904;52.208;21.192;2023-05-10T13:35:36;100954.48;;;17.37;29.95
39177;BME280;24904;52.208;21.192;2023-05-10T13:40:39;100949.70;;;17.38;29.94
39177;BME280;24904;52.208;21.192;2023-05-10T13:45:42;100946.81;;;17.33;29.23
39177;BME280;24904;52.208;21.192;2023-05-10T13:50:44;100950.48;;;17.27;29.32
39177;BME280;24904;52.208;21.192;2023-05-10T13:55:48;100944.61;;;17.20;29.05
39177;BME280;24904;52.208;21.192;2023-05-10T14:00:51;100944.31;;;17.14;28.95
39177;BME280;24904;52.208;21.192;2023-05-10T14:05:54;100938.70;;;17.12;28.84
39177;BME280;24904;52.208;21.192;2023-05-10T14:10:57;100933.45;;;17.04;29.00
39177;BME280;24904;52.208;21.192;2023-05-10T14:16:00;100928.00;;;17.00;28.97
39177;BME280;24904;52.208;21.192;2023-05-10T14:21:04;100930.55;;;16.97;29.11
39177;BME280;24904;52.208;21.192;2023-05-10T14:26:07;100924.39;;;16.95;29.39
39177;BME280;24904;52.208;21.192;2023-05-10T14:31:10;100921.62;;;16.95;29.35
39177;BME280;24904;52.208;21.192;2023-05-10T14:36:13;100925.67;;;16.94;29.32
39177;BME280;24904;52.208;21.192;2023-05-10T14:41:17;100927.12;;;16.89;29.42
39177;BME280;24904;52.208;21.192;2023-05-10T14:46:20;100923.10;;;16.85;29.34
39177;BME280;24904;52.208;21.192;2023-05-10T14:51:23;100923.36;;;16.81;29.42
39177;BME280;24904;52.208;21.192;2023-05-10T14:56:26;100921.88;;;16.78;29.27
39177;BME280;24904;52.208;21.192;2023-05-10T15:01:30;100924.52;;;16.77;29.20
39177;BME280;24904;52.208;21.192;2023-05-10T15:06:34;100930.77;;;16.74;29.06
39177;BME280;24904;52.208;21.192;2023-05-10T15:11:37;100921.04;;;16.70;28.83
39177;BME280;24904;52.208;21.192;2023-05-10T15:16:40;100917.58;;;16.64;29.09
39177;BME280;24904;52.208;21.192;2023-05-10T15:21:43;100917.89;;;16.60;29.03
39177;BME280;24904;52.208;21.192;2023-05-10T15:26:46;100918.69;;;16.57;29.16
39177;BME280;24904;52.208;21.192;2023-05-10T15:31:50;100915.77;;;16.54;29.31
39177;BME280;24904;52.208;21.192;2023-05-10T15:36:53;100912.23;;;16.51;29.11
39177;BME280;24904;52.208;21.192;2023-05-10T15:41:56;100913.36;;;16.47;29.04
39177;BME280;24904;52.208;21.192;2023-05-10T15:46:59;100916.40;;;16.42;28.78
39177;BME280;24904;52.208;21.192;2023-05-10T15:52:02;100908.98;;;16.36;29.00
39177;BME280;24904;52.208;21.192;2023-05-10T15:57:05;100905.51;;;16.31;28.97
39177;BME280;24904;52.208;21.192;2023-05-10T16:02:09;100913.52;;;16.26;28.76
39177;BME280;24904;52.208;21.192;2023-05-10T16:07:13;100919.40;;;16.22;28.61
39177;BME280;24904;52.208;21.192;2023-05-10T16:12:16;100916.00;;;16.17;28.72
39177;BME280;24904;52.208;21.192;2023-05-10T16:17:19;100909.13;;;16.13;28.78
39177;BME280;24904;52.208;21.192;2023-05-10T16:22:22;100912.32;;;16.08;28.94
39177;BME280;24904;52.208;21.192;2023-05-10T16:27:28;100914.92;;;16.04;29.09
39177;BME280;24904;52.208;21.192;2023-05-10T16:32:31;100913.04;;;16.01;29.01
39177;BME280;24904;52.208;21.192;2023-05-10T16:37:34;100914.64;;;15.97;29.03
39177;BME280;24904;52.208;21.192;2023-05-10T16:42:37;100913.15;;;15.94;29.23
39177;BME280;24904;52.208;21.192;2023-05-10T16:47:41;100917.41;;;15.89;29.07
39177;BME280;24904;52.208;21.192;2023-05-10T16:52:44;100918.85;;;15.85;29.26
39177;BME280;24904;52.208;21.192;2023-05-10T16:57:48;100924.57;;;15.80;28.97
39177;BME280;24904;52.208;21.192;2023-05-10T17:02:51;100925.91;;;15.72;28.92
39177;BME280;24904;52.208;21.192;2023-05-10T17:07:55;100933.52;;;15.66;28.95
39177;BME280;24904;52.208;21.192;2023-05-10T17:12:58;100936.81;;;15.59;29.11
39177;BME280;24904;52.208;21.192;2023-05-10T17:18:01;100937.20;;;15.49;29.24
39177;BME280;24904;52.208;21.192;2023-05-10T17:23:04;100937.98;;;15.43;29.34
39177;BME280;24904;52.208;21.192;2023-05-10T17:28:07;100942.81;;;15.41;29.47
39177;BME280;24904;52.208;21.192;2023-05-10T17:33:10;100943.37;;;15.37;29.35
39177;BME280;24904;52.208;21.192;2023-05-10T17:38:13;100948.82;;;15.29;29.43
39177;BME280;24904;52.208;21.192;2023-05-10T17:43:16;100955.13;;;15.18;29.54
39177;BME280;24904;52.208;21.192;2023-05-10T17:48:20;100962.77;;;15.08;29.86
39177;BME280;24904;52.208;21.192;2023-05-10T17:53:23;100961.25;;;14.97;29.96
39177;BME280;24904;52.208;21.192;2023-05-10T17:58:26;100967.92;;;14.90;30.09
39177;BME280;24904;52.208;21.192;2023-05-10T18:03:29;100972.48;;;14.78;30.31
39177;BME280;24904;52.208;21.192;2023-05-10T18:08:32;100971.02;;;14.67;30.62
39177;BME280;24904;52.208;21.192;2023-05-10T18:13:35;100974.27;;;14.53;30.86
39177;BME280;24904;52.208;21.192;2023-05-10T18:18:38;100978.35;;;14.38;31.01
39177;BME280;24904;52.208;21.192;2023-05-10T18:23:41;100984.83;;;14.23;31.31
39177;BME280;24904;52.208;21.192;2023-05-10T18:28:44;100984.34;;;14.09;31.46
39177;BME280;24904;52.208;21.192;2023-05-10T18:33:47;100992.39;;;13.98;31.65
39177;BME280;24904;52.208;21.192;2023-05-10T18:38:50;100999.64;;;13.87;31.92
39177;BME280;24904;52.208;21.192;2023-05-10T18:43:53;101005.36;;;13.73;32.23
39177;BME280;24904;52.208;21.192;2023-05-10T18:48:56;101011.33;;;13.60;32.51
39177;BME280;24904;52.208;21.192;2023-05-10T18:53:59;101010.24;;;13.46;32.84
39177;BME280;24904;52.208;21.192;2023-05-10T18:59:02;101014.83;;;13.31;33.18
39177;BME280;24904;52.208;21.192;2023-05-10T19:04:05;101014.89;;;13.16;33.42
39177;BME280;24904;52.208;21.192;2023-05-10T19:09:09;101020.17;;;12.97;34.03
39177;BME280;24904;52.208;21.192;2023-05-10T19:14:13;101019.38;;;12.82;34.44
39177;BME280;24904;52.208;21.192;2023-05-10T19:19:16;101019.23;;;12.70;34.51
39177;BME280;24904;52.208;21.192;2023-05-10T19:24:19;101020.19;;;12.59;34.90
39177;BME280;24904;52.208;21.192;2023-05-10T19:29:24;101021.17;;;12.46;35.13
39177;BME280;24904;52.208;21.192;2023-05-10T19:34:27;101021.05;;;12.36;35.46
39177;BME280;24904;52.208;21.192;2023-05-10T19:39:30;101022.41;;;12.27;35.69
39177;BME280;24904;52.208;21.192;2023-05-10T19:44:34;101025.95;;;12.17;35.85
39177;BME280;24904;52.208;21.192;2023-05-10T19:49:37;101025.70;;;12.05;36.10
39177;BME280;24904;52.208;21.192;2023-05-10T19:54:40;101027.56;;;11.94;36.41
39177;BME280;24904;52.208;21.192;2023-05-10T19:59:45;101031.10;;;11.84;36.69
39177;BME280;24904;52.208;21.192;2023-05-10T20:04:48;101033.63;;;11.77;36.92
39177;BME280;24904;52.208;21.192;2023-05-10T20:09:51;101029.98;;;11.70;36.91
39177;BME280;24904;52.208;21.192;2023-05-10T20:14:54;101035.55;;;11.67;37.11
39177;BME280;24904;52.208;21.192;2023-05-10T20:19:57;101035.53;;;11.60;37.35
39177;BME280;24904;52.208;21.192;2023-05-10T20:25:00;101035.81;;;11.53;37.60
39177;BME280;24904;52.208;21.192;2023-05-10T20:30:05;101029.95;;;11.47;37.66
39177;BME280;24904;52.208;21.192;2023-05-10T20:35:09;101032.84;;;11.37;37.87
39177;BME280;24904;52.208;21.192;2023-05-10T20:40:13;101033.02;;;11.26;38.04
39177;BME280;24904;52.208;21.192;2023-05-10T20:45:17;101035.60;;;11.20;38.12
39177;BME280;24904;52.208;21.192;2023-05-10T20:50:20;101042.39;;;11.18;38.44
39177;BME280;24904;52.208;21.192;2023-05-10T20:55:23;101044.48;;;11.13;38.52
39177;BME280;24904;52.208;21.192;2023-05-10T21:00:26;101054.98;;;11.09;38.51
39177;BME280;24904;52.208;21.192;2023-05-10T21:05:29;101063.23;;;11.04;38.61
39177;BME280;24904;52.208;21.192;2023-05-10T21:10:33;101057.27;;;11.00;38.64
39177;BME280;24904;52.208;21.192;2023-05-10T21:15:36;101066.42;;;11.03;38.67
39177;BME280;24904;52.208;21.192;2023-05-10T21:20:39;101068.70;;;11.03;38.73
39177;BME280;24904;52.208;21.192;2023-05-10T21:25:42;101068.52;;;11.01;38.94
39177;BME280;24904;52.208;21.192;2023-05-10T21:30:45;101072.20;;;10.97;39.11
39177;BME280;24904;52.208;21.192;2023-05-10T21:35:49;101073.28;;;10.97;39.03
39177;BME280;24904;52.208;21.192;2023-05-10T21:40:52;101070.38;;;10.92;39.14
39177;BME280;24904;52.208;21.192;2023-05-10T21:45:55;101072.53;;;10.90;39.22
39177;BME280;24904;52.208;21.192;2023-05-10T21:50:58;101074.73;;;10.87;39.22
39177;BME280;24904;52.208;21.192;2023-05-10T21:56:02;101074.52;;;10.81;39.41
39177;BME280;24904;52.208;21.192;2023-05-10T22:01:06;101076.80;;;10.73;39.47
39177;BME280;24904;52.208;21.192;2023-05-10T22:06:09;101080.52;;;10.64;39.89
39177;BME280;24904;52.208;21.192;2023-05-10T22:11:11;101082.78;;;10.59;39.89
39177;BME280;24904;52.208;21.192;2023-05-10T22:16:15;101089.50;;;10.55;39.86
39177;BME280;24904;52.208;21.192;2023-05-10T22:21:18;101091.77;;;10.49;39.98
39177;BME280;24904;52.208;21.192;2023-05-10T22:26:21;101095.55;;;10.42;40.05
39177;BME280;24904;52.208;21.192;2023-05-10T22:31:24;101102.40;;;10.37;40.35
39177;BME280;24904;52.208;21.192;2023-05-10T22:36:27;101104.17;;;10.29;40.39
39177;BME280;24904;52.208;21.192;2023-05-10T22:41:31;101107.23;;;10.23;40.52
39177;BME280;24904;52.208;21.192;2023-05-10T22:46:34;101108.98;;;10.18;40.61
39177;BME280;24904;52.208;21.192;2023-05-10T22:51:38;101113.23;;;10.13;40.65
39177;BME280;24904;52.208;21.192;2023-05-10T22:56:41;101113.81;;;10.04;40.75
39177;BME280;24904;52.208;21.192;2023-05-10T23:01:44;101113.02;;;9.98;41.23
39177;BME280;24904;52.208;21.192;2023-05-10T23:06:47;101116.84;;;9.88;41.18
39177;BME280;24904;52.208;21.192;2023-05-10T23:11:50;101112.54;;;9.79;41.26
39177;BME280;24904;52.208;21.192;2023-05-10T23:16:53;101117.49;;;9.76;41.48
39177;BME280;24904;52.208;21.192;2023-05-10T23:21:56;101115.95;;;9.69;41.41
39177;BME280;24904;52.208;21.192;2023-05-10T23:27:00;101118.15;;;9.63;41.66
39177;BME280;24904;52.208;21.192;2023-05-10T23:32:04;101117.44;;;9.59;41.79
39177;BME280;24904;52.208;21.192;2023-05-10T23:37:07;101115.05;;;9.53;41.88
39177;BME280;24904;52.208;21.192;2023-05-10T23:42:10;101117.95;;;9.44;41.97
39177;BME280;24904;52.208;21.192;2023-05-10T23:47:13;101117.50;;;9.36;41.98
39177;BME280;24904;52.208;21.192;2023-05-10T23:52:16;101118.84;;;9.28;42.25
39177;BME280;24904;52.208;21.192;2023-05-10T23:57:19;101112.32;;;9.25;42.18
